Akiachak, Alaska
Current Conditions -  °F | °C
As of 1:56 PM on Friday 31 Oct 2014 (Local Time) from PFKW Reporting Station
Clear Clear  
Wind Chill:   Ceiling: Unl
Heat Index: 17°   Visibility: 10mi
Dew Point: 11°   Wind: 20mph
Humidity: 77%   Direction: 50°NE
Pressure: 29.07"   Gusts: 26mph
Location:  60.91°N, 161.44°W
Report Text: PFKW 312156Z AUTO 05017G23KT 10SM CLR M08/M12 A2907 RMK AO2 PK WND 04026/2144 SLP846 T10831117 FZRANO
Loading
Personal Weather Stations






























Interactive Weather Map
Tropical Storm Tracking
New forecast layout! Learn more

10-Day Weather Forecast

Advertisements
Track Severe Weather on mobile